Terminal Aerodrome Forecast
Issued by NWS Caribou, ME

Home | Current Version | Previous Version | Text Only | Print | Product List | Glossary On
Versions: 1 2 3 4 5 6 7 8 9 10 11 12 13 14 15 16 17 18 19
366
FTUS41 KCAR 061733
TAFBGR
TAF
KBGR 061733Z 0618/0718 33006KT P6SM BKN025
     FM062000 32007KT P6SM SCT025 BKN045
     FM070900 00000KT P6SM BKN045
     FM071400 00000KT P6SM -SN OVC025=

USA.gov is the U.S. government's official web portal to all federal, state and local government web resources and services.